createdAt,value
2023-04-27T00:01:42.719Z,95571.16
2023-04-27T00:04:09.398Z,95561.66
2023-04-27T00:06:36.160Z,95568.25
2023-04-27T00:09:02.709Z,95564.63
2023-04-27T00:11:29.200Z,95564.16
2023-04-27T00:13:56.416Z,95565.34
2023-04-27T00:16:23.047Z,95561.69
2023-04-27T00:18:49.591Z,95568.00
2023-04-27T00:21:16.221Z,95559.25
2023-04-27T00:23:42.712Z,95555.06
2023-04-27T00:26:11.868Z,95555.56
2023-04-27T00:28:38.468Z,95553.69
2023-04-27T00:31:05.062Z,95557.34
2023-04-27T00:33:31.867Z,95555.81
2023-04-27T00:36:01.783Z,95561.88
2023-04-27T00:38:29.155Z,95551.88
2023-04-27T00:41:07.048Z,95561.28
2023-04-27T00:43:42.636Z,95563.19
2023-04-27T00:46:10.143Z,95559.13
2023-04-27T00:48:37.620Z,95557.09
2023-04-27T00:51:04.944Z,95564.03
2023-04-27T00:53:32.251Z,95556.91
2023-04-27T00:55:58.802Z,95553.44
2023-04-27T00:58:25.369Z,95552.22
2023-04-27T01:00:52.005Z,95554.16
2023-04-27T01:03:18.791Z,95555.78
2023-04-27T01:05:45.620Z,95556.38
2023-04-27T01:08:12.122Z,95564.25
2023-04-27T01:10:39.034Z,95558.94
2023-04-27T01:13:05.668Z,95560.38
2023-04-27T01:15:32.213Z,95555.69
2023-04-27T01:18:00.274Z,95555.59
2023-04-27T01:20:27.287Z,95546.59
2023-04-27T01:22:53.882Z,95563.31
2023-04-27T01:25:20.459Z,95558.38
2023-04-27T01:27:46.951Z,95556.31
2023-04-27T01:30:13.724Z,95569.69
2023-04-27T01:32:40.277Z,95579.03
2023-04-27T01:35:07.748Z,95577.75
2023-04-27T01:37:34.823Z,95577.34
2023-04-27T01:40:01.495Z,95581.84
2023-04-27T01:42:27.999Z,95581.78
2023-04-27T01:44:54.601Z,95578.16
2023-04-27T01:47:21.122Z,95574.25
2023-04-27T01:49:47.687Z,95577.88
2023-04-27T01:52:14.152Z,95584.81
2023-04-27T01:54:40.659Z,95571.34
2023-04-27T01:57:07.190Z,95570.91
2023-04-27T01:59:33.687Z,95571.09
2023-04-27T02:02:00.272Z,95564.03
2023-04-27T02:04:27.058Z,95572.16
2023-04-27T02:06:53.705Z,95574.34
2023-04-27T02:09:20.204Z,95566.81
2023-04-27T02:11:46.778Z,95568.56
2023-04-27T02:14:16.152Z,95570.41
2023-04-27T02:16:42.985Z,95567.13
2023-04-27T02:19:09.474Z,95570.19
2023-04-27T02:21:35.972Z,95570.34
2023-04-27T02:24:02.531Z,95568.34
2023-04-27T02:26:28.997Z,95564.44
2023-04-27T02:28:55.958Z,95561.53
2023-04-27T02:31:22.866Z,95563.63
2023-04-27T02:33:49.364Z,95560.78
2023-04-27T02:36:15.974Z,95569.56
2023-04-27T02:38:42.497Z,95567.28
2023-04-27T02:41:09.007Z,95574.28
2023-04-27T02:43:35.550Z,95567.72
2023-04-27T02:46:03.567Z,95574.09
2023-04-27T02:48:33.351Z,95576.72
2023-04-27T02:51:03.399Z,95576.72
2023-04-27T02:53:29.950Z,95575.66
2023-04-27T02:55:56.457Z,95582.41
2023-04-27T02:58:22.947Z,95578.75
2023-04-27T03:00:54.375Z,95590.22
2023-04-27T03:03:21.460Z,95582.50
2023-04-27T03:05:48.021Z,95588.56
2023-04-27T03:08:14.747Z,95585.94
2023-04-27T03:10:41.326Z,95589.69
2023-04-27T03:13:07.849Z,95593.69
2023-04-27T03:15:35.000Z,95590.69
2023-04-27T03:18:01.582Z,95593.50
2023-04-27T03:20:28.178Z,95590.78
2023-04-27T03:22:54.706Z,95588.13
2023-04-27T03:25:21.269Z,95587.88
2023-04-27T03:27:47.799Z,95596.06
2023-04-27T03:30:14.685Z,95594.88
2023-04-27T03:32:41.181Z,95598.34
2023-04-27T03:35:08.169Z,95595.72
2023-04-27T03:37:34.661Z,95599.91
2023-04-27T03:40:01.186Z,95595.34
2023-04-27T03:42:27.698Z,95591.25
2023-04-27T03:44:54.249Z,95589.03
2023-04-27T03:47:20.767Z,95585.13
2023-04-27T03:49:47.316Z,95593.16
2023-04-27T03:52:13.892Z,95591.66
2023-04-27T03:54:40.483Z,95597.84
2023-04-27T03:57:07.032Z,95589.66
2023-04-27T03:59:33.587Z,95593.75
2023-04-27T04:02:01.424Z,95598.69
2023-04-27T04:04:28.309Z,95593.59
2023-04-27T04:06:54.930Z,95587.81
2023-04-27T04:09:23.730Z,95595.09
2023-04-27T04:11:51.920Z,95595.53
2023-04-27T04:14:18.689Z,95597.38
2023-04-27T04:16:45.226Z,95600.16
2023-04-27T04:19:11.838Z,95592.50
2023-04-27T04:21:38.484Z,95593.63
2023-04-27T04:24:05.447Z,95598.84
2023-04-27T04:26:32.017Z,95593.38
2023-04-27T04:28:58.514Z,95597.28
2023-04-27T04:31:25.099Z,95599.03
2023-04-27T04:33:51.585Z,95595.19
2023-04-27T04:36:18.077Z,95592.75
2023-04-27T04:38:44.616Z,95591.25
2023-04-27T04:41:11.095Z,95581.97
2023-04-27T04:43:37.560Z,95594.44
2023-04-27T04:46:04.118Z,95592.16
2023-04-27T04:48:30.657Z,95586.53
2023-04-27T04:50:57.213Z,95594.94
2023-04-27T04:53:23.777Z,95585.03
2023-04-27T04:55:50.287Z,95590.59
2023-04-27T04:58:16.760Z,95584.97
2023-04-27T05:00:43.299Z,95584.78
2023-04-27T05:03:09.890Z,95587.72
2023-04-27T05:05:36.536Z,95588.88
2023-04-27T05:08:03.100Z,95589.47
2023-04-27T05:10:29.734Z,95598.03
2023-04-27T05:12:56.254Z,95602.22
2023-04-27T05:15:22.732Z,95600.13
2023-04-27T05:17:49.269Z,95596.78
2023-04-27T05:20:16.114Z,95604.59
2023-04-27T05:22:42.706Z,95604.25
2023-04-27T05:25:09.353Z,95615.75
2023-04-27T05:27:35.862Z,95612.47
2023-04-27T05:30:02.397Z,95613.91
2023-04-27T05:32:28.916Z,95615.19
2023-04-27T05:34:55.415Z,95608.19
2023-04-27T05:37:21.905Z,95610.72
2023-04-27T05:39:48.359Z,95609.34
2023-04-27T05:42:14.882Z,95620.47
2023-04-27T05:44:41.356Z,95614.28
2023-04-27T05:47:07.853Z,95618.63
2023-04-27T05:49:34.360Z,95618.34
2023-04-27T05:52:01.680Z,95613.56
2023-04-27T05:54:28.181Z,95616.94
2023-04-27T05:56:54.713Z,95615.81
2023-04-27T05:59:21.250Z,95622.47
2023-04-27T06:01:47.916Z,95617.66
2023-04-27T06:04:14.891Z,95620.97
2023-04-27T06:06:41.715Z,95632.19
2023-04-27T06:09:08.354Z,95630.91
2023-04-27T06:11:35.076Z,95638.88
2023-04-27T06:14:04.189Z,95645.31
2023-04-27T06:16:30.826Z,95647.69
2023-04-27T06:18:57.352Z,95643.50
2023-04-27T06:21:24.051Z,95651.06
2023-04-27T06:23:52.927Z,95647.66
2023-04-27T06:26:19.439Z,95646.09
2023-04-27T06:28:45.939Z,95655.94
2023-04-27T06:31:12.481Z,95653.38
2023-04-27T06:33:38.992Z,95644.88
2023-04-27T06:36:05.750Z,95639.81
2023-04-27T06:38:32.240Z,95648.47
2023-04-27T06:40:58.766Z,95644.28
2023-04-27T06:43:25.740Z,95640.94
2023-04-27T06:45:52.490Z,95643.59
2023-04-27T06:48:19.103Z,95645.47
2023-04-27T06:50:45.652Z,95647.78
2023-04-27T06:53:12.347Z,95640.84
2023-04-27T06:55:41.031Z,95642.09
2023-04-27T06:58:09.641Z,95633.13
2023-04-27T07:00:36.240Z,95638.03
2023-04-27T07:03:02.800Z,95634.81
2023-04-27T07:05:29.438Z,95642.16
2023-04-27T07:07:56.035Z,95639.69
2023-04-27T07:10:22.558Z,95644.63
2023-04-27T07:12:49.687Z,95646.63
2023-04-27T07:15:16.198Z,95651.13
2023-04-27T07:17:42.804Z,95649.50
2023-04-27T07:20:09.405Z,95644.59
2023-04-27T07:22:35.907Z,95645.81
2023-04-27T07:25:02.384Z,95648.50
2023-04-27T07:27:28.881Z,95643.59
2023-04-27T07:29:58.509Z,95649.53
2023-04-27T07:32:25.002Z,95637.84
2023-04-27T07:34:54.197Z,95638.88
2023-04-27T07:37:22.070Z,95631.09
2023-04-27T07:39:50.346Z,95635.19
2023-04-27T07:42:16.851Z,95623.69
2023-04-27T07:44:43.327Z,95632.88
2023-04-27T07:47:10.054Z,95618.81
2023-04-27T07:49:37.033Z,95623.31
2023-04-27T07:52:04.139Z,95626.22
2023-04-27T07:54:30.604Z,95620.09
2023-04-27T07:56:57.093Z,95625.63
2023-04-27T07:59:23.562Z,95626.66
2023-04-27T08:01:50.138Z,95631.09
2023-04-27T08:04:17.154Z,95626.44
2023-04-27T08:06:44.624Z,95636.19
2023-04-27T08:09:11.628Z,95624.38
2023-04-27T08:11:38.377Z,95632.38
2023-04-27T08:14:04.920Z,95631.13
2023-04-27T08:16:31.543Z,95631.53
2023-04-27T08:18:58.643Z,95630.09
2023-04-27T08:21:27.077Z,95629.06
2023-04-27T08:23:53.684Z,95622.13
2023-04-27T08:26:20.138Z,95618.81
2023-04-27T08:28:46.605Z,95629.06
2023-04-27T08:31:13.198Z,95620.00
2023-04-27T08:33:39.676Z,95621.63
2023-04-27T08:36:06.347Z,95605.84
2023-04-27T08:38:34.643Z,95614.88
2023-04-27T08:41:14.111Z,95608.53
2023-04-27T08:43:44.763Z,95614.97
2023-04-27T08:46:11.547Z,95612.97
2023-04-27T08:48:38.039Z,95619.09
2023-04-27T08:51:10.759Z,95615.97
2023-04-27T08:53:37.345Z,95620.72
2023-04-27T08:56:04.899Z,95613.50
2023-04-27T08:58:38.795Z,95614.13
2023-04-27T09:01:06.779Z,95607.72
2023-04-27T09:03:34.741Z,95610.81
2023-04-27T09:06:05.801Z,95616.97
2023-04-27T09:08:45.744Z,95611.91
2023-04-27T09:11:27.694Z,95610.38
2023-04-27T09:13:54.244Z,95610.81
2023-04-27T09:16:27.616Z,95613.13
2023-04-27T09:18:54.665Z,95611.25
2023-04-27T09:21:30.209Z,95611.53
2023-04-27T09:23:57.293Z,95618.22
2023-04-27T09:26:26.241Z,95615.19
2023-04-27T09:28:54.722Z,95607.03
2023-04-27T09:31:21.306Z,95596.34
2023-04-27T09:33:55.246Z,95603.59
2023-04-27T09:36:23.057Z,95606.38
2023-04-27T09:38:50.639Z,95594.19
2023-04-27T09:41:17.816Z,95601.16
2023-04-27T09:43:45.046Z,95588.47
2023-04-27T09:46:13.450Z,95600.50
2023-04-27T09:48:42.984Z,95601.41
2023-04-27T09:51:09.487Z,95600.97
2023-04-27T09:53:43.919Z,95599.53
2023-04-27T09:56:26.202Z,95594.91
2023-04-27T09:59:10.402Z,95595.84
2023-04-27T10:01:47.221Z,95592.69
2023-04-27T10:04:29.318Z,95580.13
2023-04-27T10:07:01.471Z,95576.00
2023-04-27T10:09:36.849Z,95576.78
2023-04-27T10:12:26.470Z,95580.84
2023-04-27T10:14:58.519Z,95567.31
2023-04-27T10:17:36.479Z,95570.56
2023-04-27T10:20:06.813Z,95576.34
2023-04-27T10:22:41.809Z,95566.34
2023-04-27T10:25:20.956Z,95573.78
2023-04-27T10:27:59.921Z,95572.06
2023-04-27T10:30:32.465Z,95564.13
2023-04-27T10:33:04.390Z,95571.03
2023-04-27T10:35:39.758Z,95572.00
2023-04-27T10:38:07.457Z,95567.63
2023-04-27T10:40:35.454Z,95572.47
2023-04-27T10:43:10.241Z,95570.34
2023-04-27T10:45:37.247Z,95559.81
2023-04-27T10:48:05.132Z,95567.47
2023-04-27T10:50:31.811Z,95569.66
2023-04-27T10:53:03.829Z,95561.94
2023-04-27T10:55:30.891Z,95556.75
2023-04-27T10:57:58.074Z,95558.34
2023-04-27T11:00:30.813Z,95561.56
2023-04-27T11:03:09.790Z,95554.72
2023-04-27T11:05:36.436Z,95557.41
2023-04-27T11:08:14.019Z,95559.16
2023-04-27T11:10:47.302Z,95560.38
2023-04-27T11:13:22.014Z,95560.91
2023-04-27T11:15:52.809Z,95561.66
2023-04-27T11:18:21.435Z,95564.66
2023-04-27T11:20:51.183Z,95553.63
2023-04-27T11:23:29.027Z,95554.75
2023-04-27T11:25:56.699Z,95548.19
2023-04-27T11:28:24.219Z,95542.50
2023-04-27T11:30:58.929Z,95542.50
2023-04-27T11:33:26.393Z,95539.97
2023-04-27T11:35:53.541Z,95543.28
2023-04-27T11:38:20.767Z,95547.53
2023-04-27T11:40:58.625Z,95546.00
2023-04-27T11:43:28.368Z,95538.56
2023-04-27T11:45:55.769Z,95536.16
2023-04-27T11:48:27.383Z,95537.59
2023-04-27T11:50:53.866Z,95530.28
2023-04-27T11:53:34.896Z,95538.69
2023-04-27T11:56:06.452Z,95535.66
2023-04-27T11:58:37.842Z,95541.06
2023-04-27T12:01:05.601Z,95538.81
2023-04-27T12:03:32.743Z,95536.09
2023-04-27T12:06:11.708Z,95537.13
2023-04-27T12:08:45.872Z,95537.25
2023-04-27T12:11:12.420Z,95534.00
2023-04-27T12:13:39.069Z,95536.66
2023-04-27T12:16:05.919Z,95539.13
2023-04-27T12:18:41.350Z,95533.63
2023-04-27T12:23:34.874Z,95524.59
2023-04-27T12:26:01.537Z,95533.00
2023-04-27T12:28:28.057Z,95528.00
2023-04-27T12:30:54.552Z,95526.56
2023-04-27T12:33:21.106Z,95530.25
2023-04-27T12:35:47.619Z,95527.72
2023-04-27T12:38:14.168Z,95527.63
2023-04-27T12:40:43.505Z,95522.09
2023-04-27T12:43:09.994Z,95528.75
2023-04-27T12:45:36.494Z,95533.13
2023-04-27T12:48:04.145Z,95532.16
2023-04-27T12:50:34.793Z,95529.97
2023-04-27T12:53:02.082Z,95533.50
2023-04-27T12:55:33.196Z,95521.22
2023-04-27T12:58:00.657Z,95526.06
2023-04-27T13:00:27.194Z,95521.88
2023-04-27T13:02:53.894Z,95519.94
2023-04-27T13:05:21.191Z,95519.13
2023-04-27T13:07:48.211Z,95514.25
2023-04-27T13:10:14.808Z,95512.88
2023-04-27T13:12:41.339Z,95517.38
2023-04-27T13:15:08.708Z,95504.47
2023-04-27T13:17:35.256Z,95511.66
2023-04-27T13:20:01.736Z,95504.78
2023-04-27T13:22:28.398Z,95521.56
2023-04-27T13:24:54.891Z,95508.34
2023-04-27T13:27:21.392Z,95507.22
2023-04-27T13:29:47.900Z,95506.94
2023-04-27T13:32:14.362Z,95502.50
2023-04-27T13:34:40.892Z,95512.75
2023-04-27T13:37:09.808Z,95499.25
2023-04-27T13:39:36.278Z,95502.72
2023-04-27T13:42:03.005Z,95500.06
2023-04-27T13:44:29.493Z,95507.38
2023-04-27T13:46:57.289Z,95504.94
2023-04-27T13:49:23.997Z,95496.84
2023-04-27T13:51:50.638Z,95496.84
2023-04-27T13:54:17.176Z,95490.91
2023-04-27T13:56:43.635Z,95492.28
2023-04-27T13:59:10.084Z,95489.25
2023-04-27T14:01:36.599Z,95492.53
2023-04-27T14:04:03.410Z,95489.34
2023-04-27T14:06:32.677Z,95490.13
2023-04-27T14:09:02.853Z,95485.59
2023-04-27T14:11:29.989Z,95489.59
2023-04-27T14:13:56.462Z,95484.25
2023-04-27T14:16:22.971Z,95489.34
2023-04-27T14:18:49.476Z,95487.47
2023-04-27T14:21:15.949Z,95484.25
2023-04-27T14:23:42.517Z,95480.47
2023-04-27T14:26:09.004Z,95484.47
2023-04-27T14:28:35.514Z,95479.03
2023-04-27T14:31:02.030Z,95476.81
2023-04-27T14:33:28.504Z,95483.41
2023-04-27T14:35:55.018Z,95476.53
2023-04-27T14:38:22.121Z,95486.63
2023-04-27T14:40:48.549Z,95472.56
2023-04-27T14:43:15.032Z,95485.28
2023-04-27T14:45:52.404Z,95481.25
2023-04-27T14:48:22.135Z,95483.16
2023-04-27T14:50:48.814Z,95479.41
2023-04-27T14:53:15.362Z,95478.00
2023-04-27T14:55:41.859Z,95476.13
2023-04-27T14:58:08.671Z,95481.78
2023-04-27T15:00:35.188Z,95479.09
2023-04-27T15:03:01.814Z,95475.81
2023-04-27T15:05:28.400Z,95476.13
2023-04-27T15:07:55.184Z,95473.28
2023-04-27T15:10:21.641Z,95469.38
2023-04-27T15:12:48.117Z,95481.19
2023-04-27T15:15:14.670Z,95477.19
2023-04-27T15:17:41.357Z,95470.75
2023-04-27T15:20:08.324Z,95469.66
2023-04-27T15:22:34.828Z,95479.88
2023-04-27T15:25:01.344Z,95477.72
2023-04-27T15:27:27.895Z,95479.75
2023-04-27T15:29:54.358Z,95482.16
2023-04-27T15:32:20.898Z,95478.97
2023-04-27T15:34:47.460Z,95473.84
2023-04-27T15:37:13.920Z,95469.56
2023-04-27T15:39:40.453Z,95470.25
2023-04-27T15:42:06.921Z,95460.25
2023-04-27T15:44:33.426Z,95468.19
2023-04-27T15:46:59.991Z,95468.03
2023-04-27T15:49:27.058Z,95457.50
2023-04-27T15:51:53.509Z,95453.16
2023-04-27T15:54:19.997Z,95452.94
2023-04-27T15:56:46.537Z,95442.56
2023-04-27T15:59:13.390Z,95454.19
2023-04-27T16:01:40.224Z,95451.53
2023-04-27T16:04:07.105Z,95444.06
2023-04-27T16:06:35.199Z,95443.94
2023-04-27T16:09:02.147Z,95444.97
2023-04-27T16:11:30.152Z,95439.13
2023-04-27T16:13:57.210Z,95445.50
2023-04-27T16:16:23.761Z,95440.13
2023-04-27T16:18:50.266Z,95445.56
2023-04-27T16:21:16.744Z,95433.66
2023-04-27T16:23:43.231Z,95433.53
2023-04-27T16:26:09.677Z,95433.19
2023-04-27T16:28:36.209Z,95423.03
2023-04-27T16:31:02.909Z,95428.03
2023-04-27T16:33:29.573Z,95429.63
2023-04-27T16:35:56.065Z,95423.28
2023-04-27T16:38:22.557Z,95422.41
2023-04-27T16:40:49.214Z,95426.94
2023-04-27T16:43:15.707Z,95418.25
2023-04-27T16:45:42.253Z,95422.88
2023-04-27T16:48:08.898Z,95427.47
2023-04-27T16:50:35.645Z,95419.44
2023-04-27T16:53:10.649Z,95424.03
2023-04-27T16:55:37.138Z,95429.63
2023-04-27T16:58:03.651Z,95427.19
2023-04-27T17:00:30.289Z,95421.97
2023-04-27T17:02:56.807Z,95425.13
2023-04-27T17:05:23.389Z,95412.19
2023-04-27T17:07:49.877Z,95421.75
2023-04-27T17:10:16.369Z,95416.97
2023-04-27T17:12:42.847Z,95416.88
2023-04-27T17:15:10.821Z,95422.47
2023-04-27T17:17:37.500Z,95430.59
2023-04-27T17:20:04.621Z,95430.69
2023-04-27T17:22:31.379Z,95437.94
2023-04-27T17:24:57.869Z,95435.94
2023-04-27T17:27:24.352Z,95431.31
2023-04-27T17:29:51.773Z,95431.69
2023-04-27T17:32:18.374Z,95432.28
2023-04-27T17:34:44.867Z,95442.38
2023-04-27T17:37:11.378Z,95430.53
2023-04-27T17:39:37.851Z,95436.50
2023-04-27T17:42:04.370Z,95435.97
2023-04-27T17:44:30.865Z,95433.78
2023-04-27T17:46:57.439Z,95431.03
2023-04-27T17:49:24.007Z,95425.25
2023-04-27T17:51:50.486Z,95429.75
2023-04-27T17:54:16.996Z,95434.66
2023-04-27T17:56:44.330Z,95438.81
2023-04-27T17:59:10.872Z,95431.75
2023-04-27T18:01:37.348Z,95438.63
2023-04-27T18:04:04.974Z,95436.84
2023-04-27T18:06:31.576Z,95447.19
2023-04-27T18:08:58.097Z,95449.72
2023-04-27T18:11:24.632Z,95446.88
2023-04-27T18:13:51.119Z,95456.91
2023-04-27T18:16:17.820Z,95457.56
2023-04-27T18:18:44.343Z,95446.94
2023-04-27T18:21:10.893Z,95455.38
2023-04-27T18:23:38.045Z,95457.16
2023-04-27T18:26:04.564Z,95459.47
2023-04-27T18:28:31.079Z,95454.16
2023-04-27T18:30:57.526Z,95452.03
2023-04-27T18:33:24.029Z,95453.00
2023-04-27T18:35:50.617Z,95453.53
2023-04-27T18:38:17.093Z,95450.50
2023-04-27T18:40:43.594Z,95453.09
2023-04-27T18:43:10.197Z,95454.16
2023-04-27T18:45:36.762Z,95456.75
2023-04-27T18:48:03.431Z,95458.84
2023-04-27T18:50:29.911Z,95452.28
2023-04-27T18:52:56.643Z,95461.94
2023-04-27T18:55:23.130Z,95464.50
2023-04-27T18:57:49.610Z,95462.56
2023-04-27T19:00:19.117Z,95465.13
2023-04-27T19:02:45.673Z,95452.94
2023-04-27T19:05:13.730Z,95456.59
2023-04-27T19:07:40.782Z,95468.00
2023-04-27T19:10:07.945Z,95468.84
2023-04-27T19:12:34.488Z,95465.84
2023-04-27T19:15:00.966Z,95475.06
2023-04-27T19:17:27.663Z,95476.00
2023-04-27T19:19:54.250Z,95473.13
2023-04-27T19:22:20.791Z,95483.16
2023-04-27T19:24:47.815Z,95483.63
2023-04-27T19:27:14.344Z,95481.19
2023-04-27T19:29:52.750Z,95487.75
2023-04-27T19:32:20.096Z,95492.06
2023-04-27T19:34:47.164Z,95479.72
2023-04-27T19:37:13.976Z,95487.84
2023-04-27T19:39:40.479Z,95491.56
2023-04-27T19:42:07.011Z,95493.31
2023-04-27T19:44:33.504Z,95492.50
2023-04-27T19:46:59.989Z,95490.88
2023-04-27T19:49:30.710Z,95496.22
2023-04-27T19:51:57.168Z,95495.66
2023-04-27T19:54:23.642Z,95503.41
2023-04-27T19:56:50.118Z,95511.94
2023-04-27T19:59:16.648Z,95509.47
2023-04-27T20:01:43.230Z,95507.63
2023-04-27T20:04:09.976Z,95509.63
2023-04-27T20:06:36.739Z,95513.09
2023-04-27T20:09:03.584Z,95511.13
2023-04-27T20:11:30.085Z,95507.41
2023-04-27T20:13:56.555Z,95514.00
2023-04-27T20:16:23.125Z,95513.22
2023-04-27T20:18:49.634Z,95511.13
2023-04-27T20:21:16.127Z,95522.41
2023-04-27T20:23:42.633Z,95523.44
2023-04-27T20:26:09.156Z,95527.28
2023-04-27T20:28:35.637Z,95526.81
2023-04-27T20:31:02.118Z,95523.28
2023-04-27T20:33:28.597Z,95519.09
2023-04-27T20:35:58.751Z,95523.41
2023-04-27T20:38:30.307Z,95526.56
2023-04-27T20:40:56.889Z,95517.78
2023-04-27T20:43:23.350Z,95526.41
2023-04-27T20:45:49.996Z,95526.50
2023-04-27T20:48:16.512Z,95523.34
2023-04-27T20:50:43.007Z,95529.13
2023-04-27T20:53:09.455Z,95521.56
2023-04-27T20:55:35.957Z,95516.72
2023-04-27T20:58:02.514Z,95524.44
2023-04-27T21:00:28.976Z,95515.63
2023-04-27T21:02:55.587Z,95519.19
2023-04-27T21:05:22.177Z,95517.47
2023-04-27T21:07:48.767Z,95521.44
2023-04-27T21:10:15.326Z,95525.84
2023-04-27T21:12:41.840Z,95524.19
2023-04-27T21:15:08.826Z,95518.47
2023-04-27T21:17:35.316Z,95522.09
2023-04-27T21:20:02.150Z,95515.94
2023-04-27T21:22:28.666Z,95515.28
2023-04-27T21:24:55.152Z,95518.09
2023-04-27T21:27:21.622Z,95510.09
2023-04-27T21:29:48.104Z,95506.63
2023-04-27T21:32:14.581Z,95496.38
2023-04-27T21:34:41.055Z,95504.84
2023-04-27T21:37:07.537Z,95498.28
2023-04-27T21:39:33.999Z,95489.28
2023-04-27T21:42:00.476Z,95495.88
2023-04-27T21:44:26.947Z,95501.22
2023-04-27T21:46:53.437Z,95499.97
2023-04-27T21:49:19.931Z,95496.94
2023-04-27T21:51:46.393Z,95497.16
2023-04-27T21:54:12.957Z,95499.22
2023-04-27T21:56:39.651Z,95500.88
2023-04-27T21:59:06.108Z,95495.16
2023-04-27T22:01:32.630Z,95493.63
2023-04-27T22:03:59.243Z,95487.00
2023-04-27T22:06:26.672Z,95494.06
2023-04-27T22:08:53.913Z,95493.63
2023-04-27T22:11:20.385Z,95492.59
2023-04-27T22:13:46.839Z,95494.84
2023-04-27T22:16:13.853Z,95508.50
2023-04-27T22:18:40.639Z,95510.31
2023-04-27T22:21:07.121Z,95508.13
2023-04-27T22:23:33.744Z,95509.16
2023-04-27T22:26:00.247Z,95510.63
2023-04-27T22:28:26.726Z,95515.97
2023-04-27T22:30:55.359Z,95511.97
2023-04-27T22:33:21.960Z,95508.25
2023-04-27T22:35:48.525Z,95509.13
2023-04-27T22:38:15.312Z,95507.50
2023-04-27T22:40:41.792Z,95512.81
2023-04-27T22:43:08.294Z,95509.78
2023-04-27T22:45:36.124Z,95508.38
2023-04-27T22:48:04.818Z,95501.50
2023-04-27T22:50:31.330Z,95500.25
2023-04-27T22:52:57.830Z,95502.09
2023-04-27T22:55:24.325Z,95508.44
2023-04-27T22:57:50.783Z,95503.34
2023-04-27T23:00:17.386Z,95510.16
2023-04-27T23:02:44.108Z,95523.63
2023-04-27T23:05:11.040Z,95513.41
2023-04-27T23:07:38.335Z,95511.41
2023-04-27T23:10:05.135Z,95500.81
2023-04-27T23:12:31.907Z,95508.25
2023-04-27T23:14:58.962Z,95508.25
2023-04-27T23:17:26.089Z,95509.56
2023-04-27T23:19:52.631Z,95514.44
2023-04-27T23:22:19.121Z,95515.63
2023-04-27T23:24:45.610Z,95508.78
2023-04-27T23:27:12.085Z,95509.72
2023-04-27T23:29:38.579Z,95517.47
2023-04-27T23:32:05.499Z,95504.28
2023-04-27T23:34:32.100Z,95505.09
2023-04-27T23:36:58.850Z,95502.59
2023-04-27T23:39:25.338Z,95502.75
2023-04-27T23:41:51.933Z,95493.53
2023-04-27T23:44:18.415Z,95502.75
2023-04-27T23:46:44.937Z,95509.56
2023-04-27T23:49:11.426Z,95506.13
2023-04-27T23:51:37.881Z,95513.25
2023-04-27T23:54:04.625Z,95514.00
2023-04-27T23:56:31.119Z,95501.28
2023-04-27T23:58:57.616Z,95498.22
